sensor_id;sensor_type;location;lat;lon;timestamp;temperature;humidity
33717;DHT22;20046;50.746;7.072;2024-03-06T00:00:47;7.20;99.90
33717;DHT22;20046;50.746;7.072;2024-03-06T00:03:12;7.20;99.90
33717;DHT22;20046;50.746;7.072;2024-03-06T00:05:38;7.20;99.90
33717;DHT22;20046;50.746;7.072;2024-03-06T00:08:04;7.10;99.90
33717;DHT22;20046;50.746;7.072;2024-03-06T00:10:29;7.10;99.90
33717;DHT22;20046;50.746;7.072;2024-03-06T00:12:55;7.10;99.90
33717;DHT22;20046;50.746;7.072;2024-03-06T00:15:21;7.10;99.90
33717;DHT22;20046;50.746;7.072;2024-03-06T00:17:46;7.20;99.90
33717;DHT22;20046;50.746;7.072;2024-03-06T00:20:12;7.20;99.90
33717;DHT22;20046;50.746;7.072;2024-03-06T00:22:39;7.20;99.90
33717;DHT22;20046;50.746;7.072;2024-03-06T00:25:05;7.10;99.90
33717;DHT22;20046;50.746;7.072;2024-03-06T00:27:31;7.10;99.90
33717;DHT22;20046;50.746;7.072;2024-03-06T00:29:56;7.10;99.90
33717;DHT22;20046;50.746;7.072;2024-03-06T00:32:23;7.10;99.90
33717;DHT22;20046;50.746;7.072;2024-03-06T00:34:49;7.10;99.90
33717;DHT22;20046;50.746;7.072;2024-03-06T00:37:14;7.00;99.90
33717;DHT22;20046;50.746;7.072;2024-03-06T00:39:40;7.00;99.90
33717;DHT22;20046;50.746;7.072;2024-03-06T00:42:05;7.00;99.90
33717;DHT22;20046;50.746;7.072;2024-03-06T00:44:33;7.00;99.90
33717;DHT22;20046;50.746;7.072;2024-03-06T00:46:58;7.00;99.90
33717;DHT22;20046;50.746;7.072;2024-03-06T00:49:24;7.00;99.90
33717;DHT22;20046;50.746;7.072;2024-03-06T00:51:49;7.00;99.90
33717;DHT22;20046;50.746;7.072;2024-03-06T00:54:15;6.90;99.90
33717;DHT22;20046;50.746;7.072;2024-03-06T00:56:41;6.90;99.90
33717;DHT22;20046;50.746;7.072;2024-03-06T00:59:07;6.80;99.90
33717;DHT22;20046;50.746;7.072;2024-03-06T01:01:32;6.70;99.90
33717;DHT22;20046;50.746;7.072;2024-03-06T01:03:58;6.70;99.90
33717;DHT22;20046;50.746;7.072;2024-03-06T01:06:23;6.60;99.90
33717;DHT22;20046;50.746;7.072;2024-03-06T01:08:49;6.60;99.90
33717;DHT22;20046;50.746;7.072;2024-03-06T01:11:14;6.50;99.90
33717;DHT22;20046;50.746;7.072;2024-03-06T01:13:40;6.50;99.90
33717;DHT22;20046;50.746;7.072;2024-03-06T01:16:06;6.40;99.90
33717;DHT22;20046;50.746;7.072;2024-03-06T01:18:32;6.40;99.90
33717;DHT22;20046;50.746;7.072;2024-03-06T01:20:58;6.30;99.90
33717;DHT22;20046;50.746;7.072;2024-03-06T01:23:23;6.30;99.90
33717;DHT22;20046;50.746;7.072;2024-03-06T01:25:49;6.20;99.90
33717;DHT22;20046;50.746;7.072;2024-03-06T01:28:14;6.10;99.90
33717;DHT22;20046;50.746;7.072;2024-03-06T01:30:40;6.10;99.90
33717;DHT22;20046;50.746;7.072;2024-03-06T01:33:06;6.00;99.90
33717;DHT22;20046;50.746;7.072;2024-03-06T01:35:31;6.00;99.90
33717;DHT22;20046;50.746;7.072;2024-03-06T01:37:57;5.90;99.90
33717;DHT22;20046;50.746;7.072;2024-03-06T01:40:23;5.80;99.90
33717;DHT22;20046;50.746;7.072;2024-03-06T01:42:49;5.80;99.90
33717;DHT22;20046;50.746;7.072;2024-03-06T01:45:14;5.70;99.90
33717;DHT22;20046;50.746;7.072;2024-03-06T01:47:40;5.60;99.90
33717;DHT22;20046;50.746;7.072;2024-03-06T01:50:06;5.60;99.90
33717;DHT22;20046;50.746;7.072;2024-03-06T01:52:35;5.60;99.90
33717;DHT22;20046;50.746;7.072;2024-03-06T01:55:01;5.60;99.90
33717;DHT22;20046;50.746;7.072;2024-03-06T01:57:28;5.60;99.90
33717;DHT22;20046;50.746;7.072;2024-03-06T01:59:54;5.60;99.90
33717;DHT22;20046;50.746;7.072;2024-03-06T02:02:20;5.50;99.90
33717;DHT22;20046;50.746;7.072;2024-03-06T02:04:46;5.50;99.90
33717;DHT22;20046;50.746;7.072;2024-03-06T02:07:13;5.60;99.90
33717;DHT22;20046;50.746;7.072;2024-03-06T02:09:39;5.70;99.90
33717;DHT22;20046;50.746;7.072;2024-03-06T02:12:06;5.80;99.90
33717;DHT22;20046;50.746;7.072;2024-03-06T02:14:34;5.80;99.90
33717;DHT22;20046;50.746;7.072;2024-03-06T02:17:00;5.80;99.90
33717;DHT22;20046;50.746;7.072;2024-03-06T02:19:40;5.90;99.90
33717;DHT22;20046;50.746;7.072;2024-03-06T02:22:07;5.90;99.90
33717;DHT22;20046;50.746;7.072;2024-03-06T02:24:33;6.00;99.90
33717;DHT22;20046;50.746;7.072;2024-03-06T02:26:59;6.00;99.90
33717;DHT22;20046;50.746;7.072;2024-03-06T02:29:25;6.00;99.90
33717;DHT22;20046;50.746;7.072;2024-03-06T02:31:50;6.10;99.90
33717;DHT22;20046;50.746;7.072;2024-03-06T02:34:16;6.10;99.90
33717;DHT22;20046;50.746;7.072;2024-03-06T02:36:42;6.20;99.90
33717;DHT22;20046;50.746;7.072;2024-03-06T02:39:07;6.20;99.90
33717;DHT22;20046;50.746;7.072;2024-03-06T02:41:35;6.20;99.90
33717;DHT22;20046;50.746;7.072;2024-03-06T02:44:01;6.10;99.90
33717;DHT22;20046;50.746;7.072;2024-03-06T02:46:27;6.10;99.90
33717;DHT22;20046;50.746;7.072;2024-03-06T02:48:52;6.10;99.90
33717;DHT22;20046;50.746;7.072;2024-03-06T02:51:19;6.00;99.90
33717;DHT22;20046;50.746;7.072;2024-03-06T02:53:45;6.00;99.90
33717;DHT22;20046;50.746;7.072;2024-03-06T02:56:16;5.90;99.90
33717;DHT22;20046;50.746;7.072;2024-03-06T02:58:42;5.90;99.90
33717;DHT22;20046;50.746;7.072;2024-03-06T03:01:08;5.90;99.90
33717;DHT22;20046;50.746;7.072;2024-03-06T03:03:34;5.90;99.90
33717;DHT22;20046;50.746;7.072;2024-03-06T03:06:00;5.90;99.90
33717;DHT22;20046;50.746;7.072;2024-03-06T03:08:26;5.80;99.90
33717;DHT22;20046;50.746;7.072;2024-03-06T03:10:51;5.80;99.90
33717;DHT22;20046;50.746;7.072;2024-03-06T03:13:17;5.70;99.90
33717;DHT22;20046;50.746;7.072;2024-03-06T03:15:42;5.60;99.90
33717;DHT22;20046;50.746;7.072;2024-03-06T03:18:08;5.60;99.90
33717;DHT22;20046;50.746;7.072;2024-03-06T03:20:34;5.40;99.90
33717;DHT22;20046;50.746;7.072;2024-03-06T03:23:01;5.40;99.90
33717;DHT22;20046;50.746;7.072;2024-03-06T03:25:27;5.30;99.90
33717;DHT22;20046;50.746;7.072;2024-03-06T03:27:53;5.20;99.90
33717;DHT22;20046;50.746;7.072;2024-03-06T03:30:18;5.10;99.90
33717;DHT22;20046;50.746;7.072;2024-03-06T03:32:47;5.10;99.90
33717;DHT22;20046;50.746;7.072;2024-03-06T03:35:13;5.00;99.90
33717;DHT22;20046;50.746;7.072;2024-03-06T03:37:38;4.90;99.90
33717;DHT22;20046;50.746;7.072;2024-03-06T03:40:05;4.90;99.90
33717;DHT22;20046;50.746;7.072;2024-03-06T03:42:32;4.90;99.90
33717;DHT22;20046;50.746;7.072;2024-03-06T03:44:57;4.90;99.90
33717;DHT22;20046;50.746;7.072;2024-03-06T03:47:23;4.90;99.90
33717;DHT22;20046;50.746;7.072;2024-03-06T03:49:48;4.90;99.90
33717;DHT22;20046;50.746;7.072;2024-03-06T03:52:15;4.90;99.90
33717;DHT22;20046;50.746;7.072;2024-03-06T03:54:41;4.90;99.90
33717;DHT22;20046;50.746;7.072;2024-03-06T03:57:06;4.80;99.90
33717;DHT22;20046;50.746;7.072;2024-03-06T03:59:33;4.80;99.90
33717;DHT22;20046;50.746;7.072;2024-03-06T04:01:59;4.80;99.90
33717;DHT22;20046;50.746;7.072;2024-03-06T04:04:24;4.90;99.90
33717;DHT22;20046;50.746;7.072;2024-03-06T04:06:50;4.90;99.90
33717;DHT22;20046;50.746;7.072;2024-03-06T04:09:16;4.90;99.90
33717;DHT22;20046;50.746;7.072;2024-03-06T04:11:41;4.90;99.90
33717;DHT22;20046;50.746;7.072;2024-03-06T04:14:07;4.90;99.90
33717;DHT22;20046;50.746;7.072;2024-03-06T04:16:33;4.90;99.90
33717;DHT22;20046;50.746;7.072;2024-03-06T04:19:00;4.90;99.90
33717;DHT22;20046;50.746;7.072;2024-03-06T04:21:26;4.90;99.90
33717;DHT22;20046;50.746;7.072;2024-03-06T04:23:51;4.80;99.90
33717;DHT22;20046;50.746;7.072;2024-03-06T04:26:17;4.70;99.90
33717;DHT22;20046;50.746;7.072;2024-03-06T04:28:43;4.60;99.90
33717;DHT22;20046;50.746;7.072;2024-03-06T04:31:09;4.50;99.90
33717;DHT22;20046;50.746;7.072;2024-03-06T04:33:35;4.50;99.90
33717;DHT22;20046;50.746;7.072;2024-03-06T04:36:04;4.40;99.90
33717;DHT22;20046;50.746;7.072;2024-03-06T04:38:34;4.40;99.90
33717;DHT22;20046;50.746;7.072;2024-03-06T04:40:59;4.50;99.90
33717;DHT22;20046;50.746;7.072;2024-03-06T04:43:25;4.40;99.90
33717;DHT22;20046;50.746;7.072;2024-03-06T04:45:50;4.30;99.90
33717;DHT22;20046;50.746;7.072;2024-03-06T04:48:16;4.30;99.90
33717;DHT22;20046;50.746;7.072;2024-03-06T04:50:42;4.20;99.90
33717;DHT22;20046;50.746;7.072;2024-03-06T04:53:07;4.10;99.90
33717;DHT22;20046;50.746;7.072;2024-03-06T04:55:33;4.00;99.90
33717;DHT22;20046;50.746;7.072;2024-03-06T04:58:02;3.90;99.90
33717;DHT22;20046;50.746;7.072;2024-03-06T05:00:28;3.90;99.90
33717;DHT22;20046;50.746;7.072;2024-03-06T05:02:54;3.80;99.90
33717;DHT22;20046;50.746;7.072;2024-03-06T05:05:21;3.80;99.90
33717;DHT22;20046;50.746;7.072;2024-03-06T05:07:48;3.70;99.90
33717;DHT22;20046;50.746;7.072;2024-03-06T05:10:13;3.70;99.90
33717;DHT22;20046;50.746;7.072;2024-03-06T05:12:40;3.70;99.90
33717;DHT22;20046;50.746;7.072;2024-03-06T05:15:06;3.60;99.90
33717;DHT22;20046;50.746;7.072;2024-03-06T05:17:33;3.60;99.90
33717;DHT22;20046;50.746;7.072;2024-03-06T05:19:59;3.60;99.90
33717;DHT22;20046;50.746;7.072;2024-03-06T05:22:24;3.70;99.90
33717;DHT22;20046;50.746;7.072;2024-03-06T05:24:51;3.70;99.90
33717;DHT22;20046;50.746;7.072;2024-03-06T05:27:18;3.70;99.90
33717;DHT22;20046;50.746;7.072;2024-03-06T05:29:44;3.70;99.90
33717;DHT22;20046;50.746;7.072;2024-03-06T05:32:10;3.60;99.90
33717;DHT22;20046;50.746;7.072;2024-03-06T05:34:35;3.60;99.90
33717;DHT22;20046;50.746;7.072;2024-03-06T05:37:01;3.50;99.90
33717;DHT22;20046;50.746;7.072;2024-03-06T05:39:30;3.50;99.90
33717;DHT22;20046;50.746;7.072;2024-03-06T05:41:59;3.50;99.90
33717;DHT22;20046;50.746;7.072;2024-03-06T05:44:25;3.40;99.90
33717;DHT22;20046;50.746;7.072;2024-03-06T05:46:52;3.40;99.90
33717;DHT22;20046;50.746;7.072;2024-03-06T05:49:17;3.40;99.90
33717;DHT22;20046;50.746;7.072;2024-03-06T05:51:43;3.40;99.90
33717;DHT22;20046;50.746;7.072;2024-03-06T05:54:08;3.40;99.90
33717;DHT22;20046;50.746;7.072;2024-03-06T05:56:37;3.40;99.90
33717;DHT22;20046;50.746;7.072;2024-03-06T05:59:04;3.40;99.90
33717;DHT22;20046;50.746;7.072;2024-03-06T06:01:36;3.30;99.90
33717;DHT22;20046;50.746;7.072;2024-03-06T06:04:02;3.30;99.90
33717;DHT22;20046;50.746;7.072;2024-03-06T06:06:27;3.30;99.90
33717;DHT22;20046;50.746;7.072;2024-03-06T06:08:53;3.40;99.90
33717;DHT22;20046;50.746;7.072;2024-03-06T06:11:19;3.40;99.90
33717;DHT22;20046;50.746;7.072;2024-03-06T06:13:44;3.40;99.90
33717;DHT22;20046;50.746;7.072;2024-03-06T06:16:10;3.30;99.90
33717;DHT22;20046;50.746;7.072;2024-03-06T06:18:35;3.30;99.90
33717;DHT22;20046;50.746;7.072;2024-03-06T06:21:01;3.30;99.90
33717;DHT22;20046;50.746;7.072;2024-03-06T06:23:27;3.40;99.90
33717;DHT22;20046;50.746;7.072;2024-03-06T06:25:53;3.40;99.90
33717;DHT22;20046;50.746;7.072;2024-03-06T06:28:19;3.50;99.90
33717;DHT22;20046;50.746;7.072;2024-03-06T06:30:44;3.50;99.90
33717;DHT22;20046;50.746;7.072;2024-03-06T06:33:10;3.60;99.90
33717;DHT22;20046;50.746;7.072;2024-03-06T06:35:35;3.60;99.90
33717;DHT22;20046;50.746;7.072;2024-03-06T06:38:01;3.70;99.90
33717;DHT22;20046;50.746;7.072;2024-03-06T06:40:27;3.70;99.90
33717;DHT22;20046;50.746;7.072;2024-03-06T06:42:56;3.70;99.90
33717;DHT22;20046;50.746;7.072;2024-03-06T06:45:22;3.80;99.90
33717;DHT22;20046;50.746;7.072;2024-03-06T06:47:48;4.00;99.90
33717;DHT22;20046;50.746;7.072;2024-03-06T06:50:14;4.10;99.90
33717;DHT22;20046;50.746;7.072;2024-03-06T06:52:41;4.30;99.90
33717;DHT22;20046;50.746;7.072;2024-03-06T06:55:07;4.50;99.90
33717;DHT22;20046;50.746;7.072;2024-03-06T06:57:34;4.70;99.90
33717;DHT22;20046;50.746;7.072;2024-03-06T07:00:00;5.10;99.90
33717;DHT22;20046;50.746;7.072;2024-03-06T07:02:26;5.70;99.90
33717;DHT22;20046;50.746;7.072;2024-03-06T07:04:53;6.30;99.90
33717;DHT22;20046;50.746;7.072;2024-03-06T07:07:18;7.00;99.90
33717;DHT22;20046;50.746;7.072;2024-03-06T07:09:44;7.70;99.90
33717;DHT22;20046;50.746;7.072;2024-03-06T07:12:09;8.10;99.90
33717;DHT22;20046;50.746;7.072;2024-03-06T07:14:35;8.30;99.90
33717;DHT22;20046;50.746;7.072;2024-03-06T07:17:01;8.30;99.90
33717;DHT22;20046;50.746;7.072;2024-03-06T07:19:26;8.10;99.90
33717;DHT22;20046;50.746;7.072;2024-03-06T07:21:52;7.90;99.90
33717;DHT22;20046;50.746;7.072;2024-03-06T07:24:19;7.80;99.90
33717;DHT22;20046;50.746;7.072;2024-03-06T07:26:44;7.70;99.90
33717;DHT22;20046;50.746;7.072;2024-03-06T07:29:10;7.60;99.90
33717;DHT22;20046;50.746;7.072;2024-03-06T07:31:43;7.80;99.90
33717;DHT22;20046;50.746;7.072;2024-03-06T07:34:10;7.70;99.90
33717;DHT22;20046;50.746;7.072;2024-03-06T07:36:35;7.80;99.90
33717;DHT22;20046;50.746;7.072;2024-03-06T07:39:02;8.20;99.90
33717;DHT22;20046;50.746;7.072;2024-03-06T07:41:28;8.70;99.90
33717;DHT22;20046;50.746;7.072;2024-03-06T07:43:53;9.10;99.90
33717;DHT22;20046;50.746;7.072;2024-03-06T07:46:19;9.30;99.90
33717;DHT22;20046;50.746;7.072;2024-03-06T07:48:44;9.50;99.90
33717;DHT22;20046;50.746;7.072;2024-03-06T07:51:10;9.60;99.90
33717;DHT22;20046;50.746;7.072;2024-03-06T07:53:35;9.60;99.90
33717;DHT22;20046;50.746;7.072;2024-03-06T07:56:02;9.60;99.90
33717;DHT22;20046;50.746;7.072;2024-03-06T07:58:28;10.10;99.90
33717;DHT22;20046;50.746;7.072;2024-03-06T08:00:54;10.70;99.90
33717;DHT22;20046;50.746;7.072;2024-03-06T08:03:21;11.00;99.90
33717;DHT22;20046;50.746;7.072;2024-03-06T08:05:51;11.20;99.90
33717;DHT22;20046;50.746;7.072;2024-03-06T08:08:18;11.70;99.90
33717;DHT22;20046;50.746;7.072;2024-03-06T08:10:44;11.90;99.90
33717;DHT22;20046;50.746;7.072;2024-03-06T08:13:10;12.00;99.90
33717;DHT22;20046;50.746;7.072;2024-03-06T08:15:36;12.00;99.90
33717;DHT22;20046;50.746;7.072;2024-03-06T08:18:01;11.40;99.90
33717;DHT22;20046;50.746;7.072;2024-03-06T08:20:29;11.70;99.90
33717;DHT22;20046;50.746;7.072;2024-03-06T08:22:56;11.40;99.90
33717;DHT22;20046;50.746;7.072;2024-03-06T08:25:21;11.40;99.90
33717;DHT22;20046;50.746;7.072;2024-03-06T08:27:47;11.10;99.90
33717;DHT22;20046;50.746;7.072;2024-03-06T08:30:13;11.20;99.90
33717;DHT22;20046;50.746;7.072;2024-03-06T08:32:38;11.50;99.90
33717;DHT22;20046;50.746;7.072;2024-03-06T08:35:05;11.40;99.90
33717;DHT22;20046;50.746;7.072;2024-03-06T08:37:32;11.50;99.90
33717;DHT22;20046;50.746;7.072;2024-03-06T08:39:59;11.90;99.90
33717;DHT22;20046;50.746;7.072;2024-03-06T08:42:25;12.00;99.90
33717;DHT22;20046;50.746;7.072;2024-03-06T08:44:50;12.30;99.90
33717;DHT22;20046;50.746;7.072;2024-03-06T08:47:16;12.40;99.90
33717;DHT22;20046;50.746;7.072;2024-03-06T08:49:42;12.10;99.90
33717;DHT22;20046;50.746;7.072;2024-03-06T08:52:08;11.90;99.90
33717;DHT22;20046;50.746;7.072;2024-03-06T08:54:35;11.90;99.90
33717;DHT22;20046;50.746;7.072;2024-03-06T08:57:01;12.10;99.90
33717;DHT22;20046;50.746;7.072;2024-03-06T08:59:28;12.50;99.90
33717;DHT22;20046;50.746;7.072;2024-03-06T09:01:54;12.80;99.90
33717;DHT22;20046;50.746;7.072;2024-03-06T09:04:21;13.10;99.90
33717;DHT22;20046;50.746;7.072;2024-03-06T09:06:47;13.50;99.90
33717;DHT22;20046;50.746;7.072;2024-03-06T09:09:14;13.60;99.90
33717;DHT22;20046;50.746;7.072;2024-03-06T09:11:41;13.50;99.90
33717;DHT22;20046;50.746;7.072;2024-03-06T09:14:07;13.70;99.90
33717;DHT22;20046;50.746;7.072;2024-03-06T09:16:35;13.60;99.90
33717;DHT22;20046;50.746;7.072;2024-03-06T09:19:00;13.80;99.90
33717;DHT22;20046;50.746;7.072;2024-03-06T09:21:26;14.00;99.90
33717;DHT22;20046;50.746;7.072;2024-03-06T09:23:52;13.90;99.90
33717;DHT22;20046;50.746;7.072;2024-03-06T09:26:17;14.20;99.90
33717;DHT22;20046;50.746;7.072;2024-03-06T09:28:43;14.50;99.90
33717;DHT22;20046;50.746;7.072;2024-03-06T09:31:09;14.60;99.90
33717;DHT22;20046;50.746;7.072;2024-03-06T09:33:34;15.10;99.90
33717;DHT22;20046;50.746;7.072;2024-03-06T09:36:00;15.40;99.90
33717;DHT22;20046;50.746;7.072;2024-03-06T09:38:26;15.70;99.90
33717;DHT22;20046;50.746;7.072;2024-03-06T09:40:53;16.00;99.90
33717;DHT22;20046;50.746;7.072;2024-03-06T09:43:20;16.30;99.90
33717;DHT22;20046;50.746;7.072;2024-03-06T09:45:48;16.60;99.90
33717;DHT22;20046;50.746;7.072;2024-03-06T09:48:18;17.00;99.90
33717;DHT22;20046;50.746;7.072;2024-03-06T09:50:46;17.20;99.90
33717;DHT22;20046;50.746;7.072;2024-03-06T09:53:16;17.30;99.90
33717;DHT22;20046;50.746;7.072;2024-03-06T09:55:42;17.60;99.90
33717;DHT22;20046;50.746;7.072;2024-03-06T09:58:08;17.50;99.90
33717;DHT22;20046;50.746;7.072;2024-03-06T10:00:37;17.40;99.90
33717;DHT22;20046;50.746;7.072;2024-03-06T10:03:03;16.90;99.90
33717;DHT22;20046;50.746;7.072;2024-03-06T10:05:34;16.40;99.90
33717;DHT22;20046;50.746;7.072;2024-03-06T10:08:03;16.20;99.90
33717;DHT22;20046;50.746;7.072;2024-03-06T10:10:29;15.90;99.90
33717;DHT22;20046;50.746;7.072;2024-03-06T10:12:55;15.50;99.90
33717;DHT22;20046;50.746;7.072;2024-03-06T10:15:26;15.90;99.90
33717;DHT22;20046;50.746;7.072;2024-03-06T10:18:18;16.80;99.90
33717;DHT22;20046;50.746;7.072;2024-03-06T10:20:44;18.20;99.90
33717;DHT22;20046;50.746;7.072;2024-03-06T10:23:10;18.70;99.20
33717;DHT22;20046;50.746;7.072;2024-03-06T10:25:36;19.30;98.60
33717;DHT22;20046;50.746;7.072;2024-03-06T10:30:28;19.10;96.80
33717;DHT22;20046;50.746;7.072;2024-03-06T10:32:54;19.30;97.10
33717;DHT22;20046;50.746;7.072;2024-03-06T10:35:20;19.60;96.70
33717;DHT22;20046;50.746;7.072;2024-03-06T10:37:50;19.90;96.20
33717;DHT22;20046;50.746;7.072;2024-03-06T10:40:16;19.80;95.80
33717;DHT22;20046;50.746;7.072;2024-03-06T10:42:45;19.70;95.60
33717;DHT22;20046;50.746;7.072;2024-03-06T10:45:13;19.50;95.70
33717;DHT22;20046;50.746;7.072;2024-03-06T10:47:40;19.60;95.40
33717;DHT22;20046;50.746;7.072;2024-03-06T10:50:06;19.80;95.40
33717;DHT22;20046;50.746;7.072;2024-03-06T10:52:36;19.60;95.00
33717;DHT22;20046;50.746;7.072;2024-03-06T10:55:04;19.40;95.20
33717;DHT22;20046;50.746;7.072;2024-03-06T10:57:30;19.00;95.60
33717;DHT22;20046;50.746;7.072;2024-03-06T10:59:56;18.80;95.60
33717;DHT22;20046;50.746;7.072;2024-03-06T11:02:25;18.80;96.20
33717;DHT22;20046;50.746;7.072;2024-03-06T11:04:53;18.10;96.20
33717;DHT22;20046;50.746;7.072;2024-03-06T11:07:19;17.50;96.60
33717;DHT22;20046;50.746;7.072;2024-03-06T11:09:45;17.80;96.70
33717;DHT22;20046;50.746;7.072;2024-03-06T11:12:32;18.00;97.50
33717;DHT22;20046;50.746;7.072;2024-03-06T11:14:58;18.90;97.10
33717;DHT22;20046;50.746;7.072;2024-03-06T11:17:27;20.10;95.90
33717;DHT22;20046;50.746;7.072;2024-03-06T11:28:25;21.20;92.40
33717;DHT22;20046;50.746;7.072;2024-03-06T11:30:57;22.20;92.70
33717;DHT22;20046;50.746;7.072;2024-03-06T11:39:04;23.90;87.00
33717;DHT22;20046;50.746;7.072;2024-03-06T11:44:14;23.90;83.40
33717;DHT22;20046;50.746;7.072;2024-03-06T11:46:49;24.60;84.40
33717;DHT22;20046;50.746;7.072;2024-03-06T11:49:17;25.30;80.60
33717;DHT22;20046;50.746;7.072;2024-03-06T11:51:45;25.60;76.70
33717;DHT22;20046;50.746;7.072;2024-03-06T11:54:11;24.90;76.80
33717;DHT22;20046;50.746;7.072;2024-03-06T11:56:45;23.10;77.60
33717;DHT22;20046;50.746;7.072;2024-03-06T11:59:12;21.40;81.50
33717;DHT22;20046;50.746;7.072;2024-03-06T12:01:38;20.80;83.50
33717;DHT22;20046;50.746;7.072;2024-03-06T12:04:03;20.10;82.50
33717;DHT22;20046;50.746;7.072;2024-03-06T12:06:33;20.80;84.10
33717;DHT22;20046;50.746;7.072;2024-03-06T12:09:00;21.70;81.50
33717;DHT22;20046;50.746;7.072;2024-03-06T12:11:25;22.70;81.10
33717;DHT22;20046;50.746;7.072;2024-03-06T12:13:53;22.60;80.60
33717;DHT22;20046;50.746;7.072;2024-03-06T12:16:19;23.60;81.10
33717;DHT22;20046;50.746;7.072;2024-03-06T12:18:45;22.50;80.00
33717;DHT22;20046;50.746;7.072;2024-03-06T12:21:11;21.80;80.40
33717;DHT22;20046;50.746;7.072;2024-03-06T12:23:39;21.70;81.80
33717;DHT22;20046;50.746;7.072;2024-03-06T12:26:09;22.90;79.00
33717;DHT22;20046;50.746;7.072;2024-03-06T12:28:39;24.20;76.50
33717;DHT22;20046;50.746;7.072;2024-03-06T12:31:05;25.50;74.10
33717;DHT22;20046;50.746;7.072;2024-03-06T12:33:32;26.20;70.20
33717;DHT22;20046;50.746;7.072;2024-03-06T12:36:03;27.00;69.20
33717;DHT22;20046;50.746;7.072;2024-03-06T12:38:30;27.50;66.80
33717;DHT22;20046;50.746;7.072;2024-03-06T12:40:56;28.20;65.10
33717;DHT22;20046;50.746;7.072;2024-03-06T12:43:21;28.80;64.40
33717;DHT22;20046;50.746;7.072;2024-03-06T12:45:47;29.00;63.30
33717;DHT22;20046;50.746;7.072;2024-03-06T12:48:13;29.20;62.00
33717;DHT22;20046;50.746;7.072;2024-03-06T12:50:38;29.20;60.70
33717;DHT22;20046;50.746;7.072;2024-03-06T12:53:04;29.20;60.80
33717;DHT22;20046;50.746;7.072;2024-03-06T12:55:32;29.10;58.80
33717;DHT22;20046;50.746;7.072;2024-03-06T12:57:58;28.40;58.40
33717;DHT22;20046;50.746;7.072;2024-03-06T13:00:23;26.70;60.40
33717;DHT22;20046;50.746;7.072;2024-03-06T13:02:50;27.00;62.40
33717;DHT22;20046;50.746;7.072;2024-03-06T13:05:18;26.60;61.80
33717;DHT22;20046;50.746;7.072;2024-03-06T13:07:45;25.50;62.50
33717;DHT22;20046;50.746;7.072;2024-03-06T13:10:11;23.50;66.20
33717;DHT22;20046;50.746;7.072;2024-03-06T13:12:38;21.80;69.70
33717;DHT22;20046;50.746;7.072;2024-03-06T13:15:04;20.80;72.60
33717;DHT22;20046;50.746;7.072;2024-03-06T13:17:31;21.90;72.90
33717;DHT22;20046;50.746;7.072;2024-03-06T13:19:56;23.40;71.00
33717;DHT22;20046;50.746;7.072;2024-03-06T13:22:22;23.70;67.70
33717;DHT22;20046;50.746;7.072;2024-03-06T13:24:48;22.40;68.60
33717;DHT22;20046;50.746;7.072;2024-03-06T13:27:14;21.10;70.60
33717;DHT22;20046;50.746;7.072;2024-03-06T13:29:39;20.10;72.40
33717;DHT22;20046;50.746;7.072;2024-03-06T13:32:07;19.50;75.30
33717;DHT22;20046;50.746;7.072;2024-03-06T13:34:32;21.00;75.10
33717;DHT22;20046;50.746;7.072;2024-03-06T13:36:59;22.50;72.40
33717;DHT22;20046;50.746;7.072;2024-03-06T13:39:24;23.80;68.80
33717;DHT22;20046;50.746;7.072;2024-03-06T13:41:51;24.50;66.10
33717;DHT22;20046;50.746;7.072;2024-03-06T13:44:18;25.30;65.20
33717;DHT22;20046;50.746;7.072;2024-03-06T13:46:43;26.30;63.60
33717;DHT22;20046;50.746;7.072;2024-03-06T13:49:40;26.90;62.00
33717;DHT22;20046;50.746;7.072;2024-03-06T13:52:07;27.60;61.10
33717;DHT22;20046;50.746;7.072;2024-03-06T13:54:37;26.30;58.50
33717;DHT22;20046;50.746;7.072;2024-03-06T13:57:03;24.70;60.20
33717;DHT22;20046;50.746;7.072;2024-03-06T13:59:32;24.50;62.00
33717;DHT22;20046;50.746;7.072;2024-03-06T14:01:58;25.00;61.70
33717;DHT22;20046;50.746;7.072;2024-03-06T14:04:28;25.40;61.40
33717;DHT22;20046;50.746;7.072;2024-03-06T14:06:53;25.40;59.80
33717;DHT22;20046;50.746;7.072;2024-03-06T14:09:19;25.60;58.60
33717;DHT22;20046;50.746;7.072;2024-03-06T14:11:45;25.80;58.50
33717;DHT22;20046;50.746;7.072;2024-03-06T14:14:10;26.10;58.90
33717;DHT22;20046;50.746;7.072;2024-03-06T14:16:38;26.40;59.00
33717;DHT22;20046;50.746;7.072;2024-03-06T14:19:05;26.30;56.90
33717;DHT22;20046;50.746;7.072;2024-03-06T14:21:31;25.60;57.60
33717;DHT22;20046;50.746;7.072;2024-03-06T14:24:00;25.90;57.30
33717;DHT22;20046;50.746;7.072;2024-03-06T14:26:32;26.40;57.10
33717;DHT22;20046;50.746;7.072;2024-03-06T14:28:58;26.50;57.60
33717;DHT22;20046;50.746;7.072;2024-03-06T14:31:24;26.60;56.30
33717;DHT22;20046;50.746;7.072;2024-03-06T14:33:50;26.00;55.30
33717;DHT22;20046;50.746;7.072;2024-03-06T14:36:16;26.10;57.10
33717;DHT22;20046;50.746;7.072;2024-03-06T14:38:42;25.80;55.50
33717;DHT22;20046;50.746;7.072;2024-03-06T14:41:09;25.70;54.70
33717;DHT22;20046;50.746;7.072;2024-03-06T14:43:35;25.30;56.30
33717;DHT22;20046;50.746;7.072;2024-03-06T14:46:04;25.20;56.30
33717;DHT22;20046;50.746;7.072;2024-03-06T14:48:30;25.10;55.50
33717;DHT22;20046;50.746;7.072;2024-03-06T14:50:55;24.90;55.10
33717;DHT22;20046;50.746;7.072;2024-03-06T14:53:21;24.60;54.70
33717;DHT22;20046;50.746;7.072;2024-03-06T14:55:47;24.00;56.00
33717;DHT22;20046;50.746;7.072;2024-03-06T14:58:13;24.00;56.10
33717;DHT22;20046;50.746;7.072;2024-03-06T15:00:38;23.50;56.40
33717;DHT22;20046;50.746;7.072;2024-03-06T15:03:04;23.40;57.20
33717;DHT22;20046;50.746;7.072;2024-03-06T15:05:29;23.10;58.30
33717;DHT22;20046;50.746;7.072;2024-03-06T15:07:57;22.50;59.40
33717;DHT22;20046;50.746;7.072;2024-03-06T15:10:24;22.10;60.40
33717;DHT22;20046;50.746;7.072;2024-03-06T15:12:49;21.60;60.40
33717;DHT22;20046;50.746;7.072;2024-03-06T15:15:15;21.10;61.80
33717;DHT22;20046;50.746;7.072;2024-03-06T15:17:41;20.40;62.90
33717;DHT22;20046;50.746;7.072;2024-03-06T15:20:07;19.60;64.00
33717;DHT22;20046;50.746;7.072;2024-03-06T15:22:37;18.60;64.80
33717;DHT22;20046;50.746;7.072;2024-03-06T15:25:08;17.80;66.00
33717;DHT22;20046;50.746;7.072;2024-03-06T15:27:34;17.10;67.30
33717;DHT22;20046;50.746;7.072;2024-03-06T15:30:01;16.40;68.60
33717;DHT22;20046;50.746;7.072;2024-03-06T15:32:27;15.90;70.40
33717;DHT22;20046;50.746;7.072;2024-03-06T15:34:52;15.50;71.90
33717;DHT22;20046;50.746;7.072;2024-03-06T15:37:22;15.20;72.60
33717;DHT22;20046;50.746;7.072;2024-03-06T15:39:54;14.80;73.00
33717;DHT22;20046;50.746;7.072;2024-03-06T15:42:21;14.60;74.10
33717;DHT22;20046;50.746;7.072;2024-03-06T15:44:48;14.30;74.90
33717;DHT22;20046;50.746;7.072;2024-03-06T15:47:14;14.10;75.40
33717;DHT22;20046;50.746;7.072;2024-03-06T15:49:40;14.00;76.70
33717;DHT22;20046;50.746;7.072;2024-03-06T15:52:06;13.90;78.00